Aérodrome :
LOGIN :

S'inscrire | Disclaimer

   EN    FR    IT 

 










Légende :    VFR   VFR Marginal   IFR   IFR Intensif   IFR Très Intensif
Visi : 
Plafond : 
>= 8 km
>= 3000ft
5 à 8 km
1000 à 3000 ft
1500m à 5 km
500 à 1000 ft
800 à 1500m
200 à 500 ft
< 800m
< 200 ft
Symboles :   Orages  Brouillard  Fortes neiges  Fortes précipitations  Vent > 20 kt
SIGMETs :   Divers  Orages  Givrage  Turbulence  Onde Orograph.  Cendres Volcan.







- Altitude de l'aérodrome : 364 ft
- Voir les cartes d'approche


LFAQ - Albert Bray

DERNIER METAR :
  • 191100Z AUTO 03010KT 6000 OVC010 14/12 Q1007 TEMPO 2000 SHRA BR BKN008 BKN030CB

METARs EXPIRÉS :
  • 191030Z AUTO 03010KT 5000 BR OVC009 14/12 Q1007 TEMPO 2000 SHRA BR BKN008 BKN030CB
  • 191000Z AUTO 02011KT 5000 -DZ BR OVC007/// ///TCU 14/12 Q1007 TEMPO 2000 SHRA BR BKN008 BKN030CB
  • 190930Z AUTO 04010KT 4000 BR OVC008/// ///TCU 14/12 Q1007 TEMPO 2000 SHRA BR BKN008 BKN030CB
  • 190900Z AUTO 04011KT 2800 BR BKN009/// OVC018/// ///CB 13/12 Q1007 TEMPO SHRA BKN013 BKN030CB
  • 190830Z AUTO 04011KT 2900 -DZ BR SCT010 OVC018 13/11 Q1007 TEMPO SHRA BKN013 BKN030CB

TAF AMD TAF LFAQ
Valide du 19 à 09h jusqu'au 19 à 18h UTC


190908Z 1909/1918 02010KT 8000 BKN030
TEMPO 1909/1918 2000 SHRA BR BKN008 BKN030CB
Pas de NOTAMs connus pour ce terrain.



MET'MAP, la Météo Aéronautique d'un coup d'oeil ! - Copyright ORBIFLY Décembre 2007 - Disclaimer

ORBIFLY MET'MAP TEAM :

Programmation & Développement : Alexandra Zaïnal
Conception & Développement : Baudouin d'Aumeries
Co-Programmation & Développement : Marc-Olivier Méhu
Soutien technique & logistique : Manuel Goepfert

Contact : metmap@orbifly.com




SOURCES & CREDITS :

   NOAA